Time;durP1;ratioP1;P1;durP2;ratioP2;P2;SDS_P1;SDS_P2;PMS_P1;PMS_P2;Temp;Humidity;BMP_temperature;BMP_pressure;BME280_temperature;BME280_humidity;BME280_pressure;Samples;Min_cycle;Max_cycle;Signal;HPM_P1;HPM_P2
2023/07/27 00:01:30;;;;;;;1.10;1.10;;;14.80;99.90;;;;;;5143283;28;20196;-44
2023/07/27 00:04:01;;;;;;;1.80;1.27;;;14.80;99.90;;;;;;5145355;28;20220;-43
2023/07/27 00:06:32;;;;;;;1.50;1.50;;;14.70;99.90;;;;;;5145432;28;20208;-44
2023/07/27 00:09:03;;;;;;;1.23;1.10;;;14.70;99.90;;;;;;5141517;28;20276;-43
2023/07/27 00:11:33;;;;;;;6.13;2.20;;;14.60;99.90;;;;;;5133804;28;20581;-44
2023/07/27 00:14:04;;;;;;;2.07;1.70;;;14.60;99.90;;;;;;5144972;28;20213;-43
2023/07/27 00:16:35;;;;;;;2.13;2.03;;;14.50;99.90;;;;;;5143652;28;20218;-43
2023/07/27 00:19:06;;;;;;;2.03;2.00;;;14.40;99.90;;;;;;5128826;28;20197;-44
2023/07/27 00:21:37;;;;;;;2.97;2.60;;;14.40;99.90;;;;;;5145643;28;20276;-43
2023/07/27 00:24:07;;;;;;;3.33;2.03;;;14.40;99.90;;;;;;5130922;28;20683;-43
2023/07/27 00:26:38;;;;;;;2.27;2.17;;;14.40;99.90;;;;;;5144720;28;20811;-43
2023/07/27 00:29:09;;;;;;;2.47;2.27;;;14.30;99.90;;;;;;5139800;28;20625;-43
2023/07/27 00:31:40;;;;;;;4.93;1.93;;;14.20;99.90;;;;;;5142844;28;20457;-43
2023/07/27 00:34:11;;;;;;;1.97;1.87;;;14.20;99.90;;;;;;5156932;28;20209;-43
2023/07/27 00:36:42;;;;;;;3.53;2.03;;;14.10;99.90;;;;;;5145861;28;20292;-44
2023/07/27 00:39:13;;;;;;;1.73;1.73;;;14.10;99.90;;;;;;5152142;28;20550;-43
2023/07/27 00:41:43;;;;;;;1.77;1.77;;;14.00;99.90;;;;;;5149215;28;20443;-44
2023/07/27 00:44:14;;;;;;;1.80;1.70;;;14.00;99.90;;;;;;5149153;28;20193;-44
2023/07/27 00:46:45;;;;;;;1.90;1.80;;;13.90;99.90;;;;;;5148404;28;20213;-43
2023/07/27 00:49:16;;;;;;;1.73;1.63;;;13.90;99.90;;;;;;5146501;28;20540;-45
2023/07/27 00:51:47;;;;;;;3.13;2.90;;;13.80;99.90;;;;;;5148731;28;20224;-44
2023/07/27 00:54:20;;;;;;;2.70;2.50;;;13.80;99.90;;;;;;5150920;28;20689;-43
2023/07/27 00:56:50;;;;;;;5.13;3.07;;;13.70;99.90;;;;;;5150126;28;20468;-43
2023/07/27 00:59:21;;;;;;;3.23;2.83;;;13.70;99.90;;;;;;5149096;28;20567;-43
2023/07/27 01:01:53;;;;;;;4.47;2.30;;;13.60;99.90;;;;;;5145248;28;20191;-43
2023/07/27 01:04:25;;;;;;;1.80;1.80;;;13.60;99.90;;;;;;5149196;28;20212;-44
2023/07/27 01:06:56;;;;;;;2.37;2.27;;;13.60;99.90;;;;;;5136053;28;20437;-43
2023/07/27 01:09:26;;;;;;;2.00;1.90;;;13.50;99.90;;;;;;5150410;28;20445;-44
2023/07/27 01:12:33;;;;;;;1.63;1.53;;;13.50;99.90;;;;;;5139992;28;20198;-44
2023/07/27 01:15:15;;;;;;;4.70;1.90;;;13.50;99.90;;;;;;5124911;28;20218;-43
2023/07/27 01:17:56;;;;;;;2.17;2.17;;;13.50;99.90;;;;;;5143090;28;20523;-43
2023/07/27 01:20:27;;;;;;;3.07;2.13;;;13.50;99.90;;;;;;5149885;28;20957;-45
2023/07/27 01:23:36;;;;;;;1.87;1.87;;;13.40;99.90;;;;;;5147380;28;20925;-43
2023/07/27 01:26:29;;;;;;;2.07;1.97;;;13.40;99.90;;;;;;5113383;28;20205;-43
2023/07/27 01:29:24;;;;;;;1.97;1.90;;;13.40;99.90;;;;;;5145433;28;20540;-43
2023/07/27 01:31:56;;;;;;;1.60;1.60;;;13.40;99.90;;;;;;5152714;28;20441;-42
2023/07/27 01:34:31;;;;;;;2.50;2.00;;;13.40;99.90;;;;;;5152353;28;20445;-45
2023/07/27 01:37:04;;;;;;;2.27;2.10;;;13.30;99.90;;;;;;5145584;28;20468;-43
2023/07/27 01:39:45;;;;;;;1.60;1.60;;;13.30;99.90;;;;;;5157659;28;20906;-43
2023/07/27 01:42:17;;;;;;;2.50;2.20;;;13.30;99.90;;;;;;5150271;28;20455;-43
2023/07/27 01:44:49;;;;;;;3.33;2.17;;;13.30;99.90;;;;;;5145082;28;20465;-44
2023/07/27 01:47:22;;;;;;;2.30;2.20;;;13.20;99.90;;;;;;5145564;28;20450;-43
2023/07/27 01:49:54;;;;;;;1.73;1.70;;;13.20;99.90;;;;;;5142880;28;20528;-43
2023/07/27 01:52:26;;;;;;;2.17;1.97;;;13.20;99.90;;;;;;5145650;28;20422;-43
2023/07/27 01:54:58;;;;;;;2.10;2.00;;;13.10;99.90;;;;;;5147233;28;20489;-42
2023/07/27 01:57:30;;;;;;;2.43;2.30;;;13.20;99.90;;;;;;5145332;28;20527;-43
2023/07/27 02:00:03;;;;;;;2.50;2.30;;;13.10;99.90;;;;;;5137518;28;20552;-44
2023/07/27 02:02:34;;;;;;;1.70;1.60;;;13.10;99.90;;;;;;5141481;28;20441;-43
2023/07/27 02:05:05;;;;;;;2.60;2.40;;;13.00;99.90;;;;;;5149169;28;20442;-42
2023/07/27 02:07:36;;;;;;;3.43;2.20;;;13.10;99.90;;;;;;5143197;28;20444;-43
2023/07/27 02:10:10;;;;;;;1.60;1.60;;;13.00;99.90;;;;;;5142548;28;20424;-43
2023/07/27 02:13:08;;;;;;;2.00;1.90;;;13.10;99.90;;;;;;5133281;28;20276;-44
2023/07/27 02:15:55;;;;;;;1.90;1.80;;;13.10;99.90;;;;;;5133259;28;20602;-43
2023/07/27 02:18:29;;;;;;;3.17;2.73;;;13.10;99.90;;;;;;5144160;28;20439;-44
2023/07/27 02:21:01;;;;;;;2.43;2.33;;;13.00;99.90;;;;;;5132155;28;20433;-46
2023/07/27 02:23:32;;;;;;;5.23;2.90;;;13.00;99.90;;;;;;5133129;28;20449;-44
2023/07/27 02:26:03;;;;;;;2.80;2.60;;;12.90;99.90;;;;;;5142481;28;20857;-44
2023/07/27 02:28:34;;;;;;;2.67;2.23;;;12.90;99.90;;;;;;5152480;28;20468;-46
2023/07/27 02:31:07;;;;;;;2.10;2.00;;;12.90;99.90;;;;;;5138602;28;20189;-43
2023/07/27 02:33:38;;;;;;;2.93;2.77;;;12.90;99.90;;;;;;5126448;28;20214;-42
2023/07/27 02:36:09;;;;;;;3.00;2.70;;;12.90;99.90;;;;;;5151832;28;20518;-43
2023/07/27 02:38:40;;;;;;;4.80;1.93;;;12.90;99.90;;;;;;5147099;28;20587;-43
2023/07/27 02:41:11;;;;;;;2.30;2.20;;;12.90;99.90;;;;;;5144315;28;20210;-43
2023/07/27 02:43:41;;;;;;;2.70;2.50;;;12.90;99.90;;;;;;5143132;28;20693;-43
2023/07/27 02:46:12;;;;;;;2.43;2.33;;;12.90;99.90;;;;;;5150688;28;20429;-45
2023/07/27 02:48:43;;;;;;;2.30;2.20;;;12.90;99.90;;;;;;5143329;28;20196;-43
2023/07/27 02:51:13;;;;;;;2.83;2.73;;;12.90;99.90;;;;;;5139815;28;20186;-43
2023/07/27 02:53:44;;;;;;;3.37;2.57;;;12.90;99.90;;;;;;5150145;28;20206;-42
2023/07/27 02:56:15;;;;;;;2.90;2.70;;;12.90;99.90;;;;;;5144906;28;20199;-45
2023/07/27 02:58:45;;;;;;;2.30;2.20;;;12.90;99.90;;;;;;5144018;28;20181;-44
2023/07/27 03:01:16;;;;;;;2.80;2.70;;;12.90;99.90;;;;;;5151674;28;20182;-44
2023/07/27 03:03:47;;;;;;;4.80;3.30;;;12.90;99.90;;;;;;5147689;28;20328;-43
2023/07/27 03:06:17;;;;;;;2.80;2.60;;;12.90;99.90;;;;;;5140492;28;20186;-44
2023/07/27 03:08:48;;;;;;;4.03;2.70;;;12.90;99.90;;;;;;5150691;28;20185;-42
2023/07/27 03:11:19;;;;;;;3.13;3.03;;;12.90;99.90;;;;;;5147270;28;20186;-43
2023/07/27 03:13:51;;;;;;;4.33;2.73;;;12.90;99.90;;;;;;5145864;28;20202;-42
2023/07/27 03:16:22;;;;;;;3.60;3.30;;;12.90;99.90;;;;;;5143875;28;20213;-43
2023/07/27 03:18:53;;;;;;;2.43;2.23;;;12.90;99.90;;;;;;5151799;28;20436;-42
2023/07/27 03:21:23;;;;;;;3.03;2.83;;;12.90;99.90;;;;;;5140849;28;20182;-42
2023/07/27 03:23:54;;;;;;;3.13;2.93;;;13.10;99.90;;;;;;5148701;28;20197;-42
2023/07/27 03:26:25;;;;;;;3.07;2.90;;;12.90;99.90;;;;;;5131304;28;20557;-43
2023/07/27 03:28:55;;;;;;;3.57;3.00;;;12.90;99.90;;;;;;5134593;28;20220;-43
2023/07/27 03:31:28;;;;;;;3.17;2.90;;;12.90;99.90;;;;;;5130617;28;20278;-43
2023/07/27 03:33:59;;;;;;;3.97;3.67;;;13.10;99.90;;;;;;5152075;28;20206;-43
2023/07/27 03:36:30;;;;;;;2.40;2.20;;;13.20;99.90;;;;;;5139217;28;20477;-43
2023/07/27 03:39:01;;;;;;;2.80;2.70;;;13.10;99.90;;;;;;5148582;28;20264;-42
2023/07/27 03:41:31;;;;;;;4.87;3.87;;;13.00;99.90;;;;;;5141739;28;20534;-43
2023/07/27 03:44:02;;;;;;;2.73;2.63;;;13.10;99.90;;;;;;5147832;28;20444;-43
2023/07/27 03:46:33;;;;;;;3.00;2.70;;;13.20;99.90;;;;;;5144078;28;20185;-43
2023/07/27 03:49:04;;;;;;;3.97;2.93;;;13.20;99.90;;;;;;5138699;28;20189;-43
2023/07/27 03:51:34;;;;;;;3.10;2.90;;;13.30;99.90;;;;;;5135539;28;20193;-43
2023/07/27 03:54:05;;;;;;;3.90;3.47;;;13.30;99.90;;;;;;5145987;28;20201;-44
2023/07/27 03:56:36;;;;;;;3.03;2.83;;;13.30;99.90;;;;;;5155472;28;20205;-43
2023/07/27 03:59:07;;;;;;;3.60;3.40;;;13.20;99.90;;;;;;5141763;28;20182;-43
2023/07/27 04:01:37;;;;;;;3.30;2.63;;;13.30;99.90;;;;;;5143746;28;20540;-44
2023/07/27 04:04:08;;;;;;;3.03;2.93;;;13.40;99.90;;;;;;5139072;28;20258;-44
2023/07/27 04:06:39;;;;;;;4.00;3.63;;;13.50;99.90;;;;;;5136676;28;20717;-44
2023/07/27 04:09:09;;;;;;;3.70;3.40;;;13.50;99.90;;;;;;5135117;28;20186;-44
2023/07/27 04:11:40;;;;;;;3.53;3.33;;;13.40;99.90;;;;;;5141450;28;20177;-44
2023/07/27 04:14:11;;;;;;;6.43;4.07;;;13.40;99.90;;;;;;5144358;28;20214;-44
2023/07/27 04:16:42;;;;;;;3.67;3.07;;;13.30;99.90;;;;;;5138171;28;20210;-44
2023/07/27 04:19:12;;;;;;;4.43;4.10;;;13.30;99.90;;;;;;5153813;28;20268;-44
2023/07/27 04:21:43;;;;;;;4.27;3.80;;;13.40;99.90;;;;;;5142504;28;20181;-44
2023/07/27 04:24:14;;;;;;;6.73;3.60;;;13.60;99.90;;;;;;5146378;28;20233;-45
2023/07/27 04:26:45;;;;;;;7.30;3.67;;;13.50;99.90;;;;;;5140917;28;20202;-44
2023/07/27 04:29:16;;;;;;;3.37;3.07;;;13.60;99.90;;;;;;5134102;28;20201;-44
2023/07/27 04:31:47;;;;;;;3.00;2.80;;;13.80;99.90;;;;;;5136345;28;20429;-44
2023/07/27 04:34:18;;;;;;;3.60;3.40;;;14.00;99.90;;;;;;5140452;28;20214;-44
2023/07/27 04:36:49;;;;;;;3.53;3.23;;;14.20;99.90;;;;;;5138072;28;20465;-44
2023/07/27 04:39:19;;;;;;;3.67;3.40;;;14.40;99.90;;;;;;5124462;28;20183;-44
2023/07/27 04:41:50;;;;;;;3.87;3.57;;;14.50;99.90;;;;;;5143654;28;20209;-44
2023/07/27 04:44:21;;;;;;;3.70;3.40;;;14.50;99.90;;;;;;5145449;28;20208;-44
2023/07/27 04:46:53;;;;;;;2.87;2.63;;;14.50;99.90;;;;;;5137774;28;20189;-44
2023/07/27 04:49:24;;;;;;;2.83;2.70;;;14.70;99.90;;;;;;5150790;28;20193;-49
2023/07/27 04:51:55;;;;;;;3.80;3.60;;;14.70;99.90;;;;;;5145687;28;20476;-44
2023/07/27 04:54:26;;;;;;;6.03;3.40;;;14.80;99.90;;;;;;5147395;28;20206;-43
2023/07/27 04:56:56;;;;;;;3.90;3.57;;;15.00;99.90;;;;;;5142712;28;20205;-44
2023/07/27 04:59:27;;;;;;;6.93;3.73;;;15.20;99.90;;;;;;5135412;28;20217;-45
2023/07/27 05:01:58;;;;;;;3.53;3.20;;;15.10;99.90;;;;;;5140840;28;20182;-43
2023/07/27 05:04:29;;;;;;;3.87;3.20;;;15.50;99.90;;;;;;5111194;29;20206;-44
2023/07/27 05:06:59;;;;;;;3.77;3.37;;;16.10;99.90;;;;;;5133969;28;20187;-44
2023/07/27 05:09:30;;;;;;;4.00;2.93;;;17.40;99.90;;;;;;5135563;28;20186;-44
2023/07/27 05:12:01;;;;;;;2.90;2.70;;;18.60;99.90;;;;;;5139577;28;20186;-44
2023/07/27 05:14:31;;;;;;;3.53;3.30;;;20.00;99.90;;;;;;5128045;28;20210;-44
2023/07/27 05:17:02;;;;;;;6.00;3.20;;;21.10;99.90;;;;;;5141328;28;20216;-44
2023/07/27 05:19:33;;;;;;;6.33;3.00;;;22.30;96.40;;;;;;5131998;28;20177;-44
2023/07/27 05:22:04;;;;;;;3.70;3.37;;;23.20;86.60;;;;;;5146609;28;20220;-44
2023/07/27 05:24:35;;;;;;;2.93;2.73;;;24.20;79.30;;;;;;5145631;28;20201;-44
2023/07/27 05:27:05;;;;;;;3.27;2.57;;;24.00;73.80;;;;;;5143050;28;20798;-44
2023/07/27 05:29:36;;;;;;;2.57;2.47;;;24.50;71.70;;;;;;5140069;28;20289;-44
2023/07/27 05:32:07;;;;;;;4.13;2.30;;;25.40;67.60;;;;;;5145641;28;20225;-44
2023/07/27 05:34:38;;;;;;;5.80;2.00;;;26.30;61.00;;;;;;5141840;28;20212;-44
2023/07/27 05:37:09;;;;;;;1.70;1.70;;;26.90;58.60;;;;;;5138618;28;20973;-44
2023/07/27 05:39:40;;;;;;;2.67;2.47;;;27.50;56.30;;;;;;5137396;28;20241;-44
2023/07/27 05:42:10;;;;;;;3.60;2.10;;;28.60;51.90;;;;;;5143206;28;20192;-43
2023/07/27 05:44:41;;;;;;;1.63;1.53;;;28.90;49.80;;;;;;5145171;28;20229;-44
2023/07/27 05:47:13;;;;;;;2.10;2.10;;;30.00;46.60;;;;;;5148913;28;20190;-44
2023/07/27 05:49:44;;;;;;;2.67;2.47;;;29.80;45.20;;;;;;5142750;28;20196;-44
2023/07/27 05:52:14;;;;;;;2.03;1.93;;;29.80;44.60;;;;;;5139942;28;20440;-44
2023/07/27 05:54:45;;;;;;;2.10;2.00;;;30.30;43.10;;;;;;5141744;28;20205;-44
2023/07/27 05:57:16;;;;;;;1.80;1.70;;;30.60;43.10;;;;;;5147167;28;20202;-44
2023/07/27 05:59:47;;;;;;;2.57;2.10;;;31.10;42.00;;;;;;5139345;28;20209;-45
2023/07/27 06:02:17;;;;;;;4.53;2.40;;;31.00;41.60;;;;;;5146893;28;20178;-44
2023/07/27 06:04:48;;;;;;;4.10;1.63;;;31.70;39.90;;;;;;5145524;28;20208;-46
2023/07/27 06:07:19;;;;;;;1.77;1.67;;;31.70;39.40;;;;;;5147015;28;20662;-44
2023/07/27 06:09:50;;;;;;;2.60;2.50;;;31.80;39.40;;;;;;5139261;28;20181;-44
2023/07/27 06:12:20;;;;;;;2.47;1.93;;;31.00;39.10;;;;;;5131442;28;20232;-45
2023/07/27 06:14:51;;;;;;;2.27;2.17;;;31.30;39.70;;;;;;5134117;28;20273;-44
2023/07/27 06:17:22;;;;;;;2.23;2.03;;;31.90;39.70;;;;;;5143366;28;20843;-44
2023/07/27 06:19:53;;;;;;;2.33;2.13;;;32.20;37.60;;;;;;5145556;28;20189;-47
2023/07/27 06:22:24;;;;;;;5.20;2.67;;;31.40;38.40;;;;;;5147702;28;20956;-44
2023/07/27 06:24:55;;;;;;;2.27;2.03;;;30.30;39.70;;;;;;5146130;28;20181;-46
2023/07/27 06:27:26;;;;;;;2.00;1.90;;;29.80;40.90;;;;;;5138437;28;20245;-45
2023/07/27 06:29:56;;;;;;;2.47;2.27;;;30.30;40.00;;;;;;5140970;28;20190;-44
2023/07/27 06:32:27;;;;;;;2.00;1.90;;;30.40;39.60;;;;;;5136770;28;20186;-45
2023/07/27 06:34:58;;;;;;;3.90;2.00;;;29.90;39.90;;;;;;5146699;28;20272;-45
2023/07/27 06:37:28;;;;;;;2.07;1.97;;;30.10;40.70;;;;;;5143306;28;20221;-44
2023/07/27 06:39:59;;;;;;;2.90;2.70;;;30.10;40.00;;;;;;5142283;28;20586;-44
2023/07/27 06:42:30;;;;;;;3.57;2.67;;;30.20;40.30;;;;;;5147038;28;20186;-43
2023/07/27 06:45:01;;;;;;;2.10;2.00;;;29.80;39.40;;;;;;5142856;28;20186;-43
2023/07/27 06:47:32;;;;;;;6.00;2.60;;;29.70;40.80;;;;;;5146866;28;20220;-43
2023/07/27 06:50:03;;;;;;;2.13;1.93;;;29.50;40.90;;;;;;5137035;28;20284;-44
2023/07/27 06:52:34;;;;;;;3.70;2.40;;;29.90;39.80;;;;;;5144192;28;20197;-44
2023/07/27 06:55:06;;;;;;;2.30;2.20;;;30.10;39.80;;;;;;5145777;28;20441;-45
2023/07/27 06:57:36;;;;;;;3.23;2.30;;;30.40;39.10;;;;;;5145715;28;20693;-44
2023/07/27 07:00:08;;;;;;;2.40;2.20;;;29.60;39.70;;;;;;5145493;28;20442;-44
2023/07/27 07:02:39;;;;;;;3.63;2.90;;;28.70;41.50;;;;;;5145193;28;20189;-44
2023/07/27 07:05:10;;;;;;;5.60;2.83;;;28.40;41.60;;;;;;5155983;28;20421;-45
2023/07/27 07:07:43;;;;;;;2.53;2.43;;;27.80;43.30;;;;;;5141307;28;20185;-44
2023/07/27 07:10:14;;;;;;;2.70;2.50;;;26.90;44.20;;;;;;5146347;28;20444;-45
2023/07/27 07:12:44;;;;;;;3.77;2.70;;;27.30;45.20;;;;;;5145481;28;20433;-44
2023/07/27 07:15:15;;;;;;;2.70;2.30;;;28.20;43.30;;;;;;5134374;28;20246;-43
2023/07/27 07:17:46;;;;;;;2.80;2.60;;;29.00;41.90;;;;;;5139137;28;20217;-43
2023/07/27 07:20:16;;;;;;;2.53;2.33;;;29.40;42.10;;;;;;5131365;28;20202;-44
2023/07/27 07:22:47;;;;;;;3.33;2.20;;;30.40;40.10;;;;;;5144942;28;20567;-44
2023/07/27 07:25:18;;;;;;;9.23;2.00;;;31.00;39.20;;;;;;5128797;28;20182;-44
2023/07/27 07:27:49;;;;;;;2.63;2.43;;;31.00;39.00;;;;;;5144155;28;20270;-44
2023/07/27 07:30:19;;;;;;;2.17;2.07;;;30.80;39.10;;;;;;5144475;28;20215;-45
2023/07/27 07:32:50;;;;;;;2.30;2.20;;;29.90;40.50;;;;;;5142497;28;20754;-44
2023/07/27 07:35:21;;;;;;;6.23;2.47;;;30.40;40.00;;;;;;5130147;28;20193;-45
2023/07/27 07:37:52;;;;;;;2.93;2.70;;;30.40;39.00;;;;;;5145832;28;20472;-45
2023/07/27 07:40:24;;;;;;;5.13;2.67;;;29.30;41.10;;;;;;5132922;28;20193;-45
2023/07/27 07:42:55;;;;;;;2.10;2.00;;;29.80;41.00;;;;;;5133607;28;20257;-45
2023/07/27 07:45:25;;;;;;;2.20;2.10;;;29.70;40.80;;;;;;5138420;28;20434;-45
2023/07/27 07:47:56;;;;;;;2.90;2.50;;;29.50;41.20;;;;;;5136278;28;20640;-44
2023/07/27 07:50:27;;;;;;;1.90;1.80;;;29.30;41.30;;;;;;5144882;28;20185;-43
2023/07/27 07:52:57;;;;;;;2.53;2.33;;;28.50;42.20;;;;;;5154062;28;20201;-44
2023/07/27 07:55:28;;;;;;;2.37;2.20;;;27.20;43.90;;;;;;5146333;28;20272;-45
2023/07/27 07:57:59;;;;;;;2.13;1.93;;;26.30;46.00;;;;;;5140737;28;20209;-44
2023/07/27 08:00:30;;;;;;;3.37;2.67;;;25.50;47.70;;;;;;5131673;28;20182;-44
2023/07/27 08:03:00;;;;;;;5.47;3.30;;;25.00;49.20;;;;;;5142371;28;20215;-44
2023/07/27 08:05:31;;;;;;;1.97;1.87;;;24.20;49.60;;;;;;5133936;28;20715;-44
2023/07/27 08:08:02;;;;;;;2.50;2.30;;;23.80;51.20;;;;;;5141053;28;20225;-44
2023/07/27 08:10:33;;;;;;;2.40;2.30;;;23.90;51.80;;;;;;5141186;28;20217;-43
2023/07/27 08:13:04;;;;;;;2.57;2.20;;;24.30;51.40;;;;;;5144303;28;20489;-44
2023/07/27 08:15:35;;;;;;;7.73;2.87;;;24.60;50.70;;;;;;5138038;28;20200;-44
2023/07/27 08:18:05;;;;;;;8.90;2.70;;;24.50;50.70;;;;;;5139980;28;20209;-44
2023/07/27 08:20:37;;;;;;;3.20;1.80;;;24.40;50.70;;;;;;5144964;28;20665;-44
2023/07/27 08:23:07;;;;;;;3.20;2.93;;;23.70;51.50;;;;;;5145282;28;20202;-44
2023/07/27 08:25:39;;;;;;;2.90;2.70;;;23.40;52.70;;;;;;5144078;28;20444;-45
2023/07/27 08:28:10;;;;;;;2.60;2.40;;;23.30;53.10;;;;;;5141273;28;20178;-44
2023/07/27 08:30:44;;;;;;;2.63;2.33;;;23.20;53.30;;;;;;5137630;28;20448;-44
2023/07/27 08:33:14;;;;;;;2.50;2.20;;;23.20;53.50;;;;;;5136723;28;20262;-43
2023/07/27 08:35:46;;;;;;;4.40;2.50;;;23.10;54.20;;;;;;5142190;28;20462;-45
2023/07/27 08:38:17;;;;;;;2.80;2.60;;;23.20;54.40;;;;;;5147013;28;20209;-45
2023/07/27 08:40:55;;;;;;;2.60;2.40;;;23.10;53.90;;;;;;5143982;28;20429;-44
2023/07/27 08:43:27;;;;;;;2.93;2.70;;;23.00;54.60;;;;;;5142701;28;20205;-44
2023/07/27 08:46:00;;;;;;;2.87;2.60;;;22.70;54.50;;;;;;5132856;28;20915;-43
2023/07/27 08:48:31;;;;;;;3.63;3.07;;;22.50;55.60;;;;;;5125461;28;20465;-44
2023/07/27 08:51:02;;;;;;;3.20;3.00;;;22.50;56.20;;;;;;5141602;28;20446;-44
2023/07/27 08:53:33;;;;;;;4.23;2.57;;;22.10;56.70;;;;;;5129370;28;20430;-44
2023/07/27 08:56:04;;;;;;;2.60;2.50;;;22.00;56.40;;;;;;5147651;28;20186;-45
2023/07/27 08:58:35;;;;;;;3.53;2.90;;;21.70;56.70;;;;;;5147529;28;20252;-46
2023/07/27 09:01:06;;;;;;;3.80;2.70;;;21.90;56.90;;;;;;5128684;28;20517;-44
2023/07/27 09:03:36;;;;;;;3.20;3.00;;;22.20;56.70;;;;;;5135599;28;20194;-44
2023/07/27 09:06:08;;;;;;;9.90;3.30;;;22.40;56.10;;;;;;5145351;28;20281;-44
2023/07/27 09:08:38;;;;;;;2.90;2.73;;;22.30;56.30;;;;;;5132955;28;20556;-44
2023/07/27 09:11:12;;;;;;;15.80;3.33;;;22.40;56.20;;;;;;5149420;28;20425;-48
2023/07/27 09:13:43;;;;;;;2.67;2.57;;;22.40;56.30;;;;;;5147205;28;20292;-45
2023/07/27 09:16:13;;;;;;;4.10;2.30;;;22.60;56.60;;;;;;5147647;28;20899;-45
2023/07/27 09:18:46;;;;;;;4.03;3.30;;;23.00;56.00;;;;;;5143977;28;20241;-44
2023/07/27 09:21:17;;;;;;;3.23;2.93;;;23.20;55.50;;;;;;5135437;28;20182;-44
2023/07/27 09:23:48;;;;;;;3.47;2.80;;;23.60;55.10;;;;;;5144242;28;20850;-45
2023/07/27 09:26:25;;;;;;;2.70;2.60;;;23.50;54.30;;;;;;5140438;28;21602;-44
2023/07/27 09:28:56;;;;;;;2.90;2.70;;;23.30;54.60;;;;;;5146971;28;20185;-46
2023/07/27 09:31:33;;;;;;;3.27;2.97;;;23.20;55.10;;;;;;5136200;28;20444;-45
2023/07/27 09:34:04;;;;;;;3.60;3.30;;;23.30;55.20;;;;;;5117210;29;20293;-46
2023/07/27 09:36:35;;;;;;;10.90;2.87;;;23.00;55.40;;;;;;5140418;28;20458;-44
2023/07/27 09:39:06;;;;;;;3.10;2.47;;;22.80;55.90;;;;;;5147351;28;21024;-45
2023/07/27 09:41:38;;;;;;;2.87;2.67;;;22.50;56.20;;;;;;5146057;28;20193;-44
2023/07/27 09:44:16;;;;;;;3.73;2.80;;;22.20;57.00;;;;;;5140464;28;20562;-44
2023/07/27 09:46:47;;;;;;;3.93;3.00;;;22.10;57.00;;;;;;5147174;28;20448;-45
2023/07/27 09:49:18;;;;;;;2.67;2.57;;;22.10;57.50;;;;;;5126899;28;20441;-44
2023/07/27 09:51:51;;;;;;;3.20;3.03;;;22.20;57.20;;;;;;5139040;28;20497;-43
2023/07/27 09:54:24;;;;;;;4.67;3.60;;;21.90;57.40;;;;;;5141434;28;20461;-44
2023/07/27 09:56:55;;;;;;;3.87;3.10;;;21.70;57.60;;;;;;5140673;28;20461;-44
2023/07/27 09:59:27;;;;;;;3.57;3.27;;;21.50;58.40;;;;;;5137394;28;20932;-45
2023/07/27 10:01:58;;;;;;;4.07;3.63;;;21.60;59.00;;;;;;5138965;28;20185;-45
2023/07/27 10:04:29;;;;;;;4.77;2.60;;;21.70;59.20;;;;;;5135830;28;20789;-45
2023/07/27 10:06:59;;;;;;;4.43;3.30;;;22.00;58.60;;;;;;5140278;28;20182;-44
2023/07/27 10:09:30;;;;;;;4.37;3.20;;;22.30;58.10;;;;;;5143755;28;20181;-44
2023/07/27 10:12:01;;;;;;;3.03;2.83;;;22.60;57.80;;;;;;5140550;28;20186;-44
2023/07/27 10:14:32;;;;;;;3.00;2.80;;;22.70;57.20;;;;;;5142762;28;20237;-45
2023/07/27 10:17:07;;;;;;;6.03;3.37;;;22.80;57.40;;;;;;5142147;28;20206;-45
2023/07/27 10:19:49;;;;;;;3.20;2.90;;;22.60;57.30;;;;;;5141942;28;20461;-44
2023/07/27 10:22:19;;;;;;;3.80;2.90;;;22.60;57.50;;;;;;5137120;28;20433;-44
2023/07/27 10:24:53;;;;;;;2.87;2.67;;;22.70;57.40;;;;;;5145426;28;20445;-45
2023/07/27 10:27:24;;;;;;;2.80;2.70;;;22.70;57.70;;;;;;5139871;28;20281;-44
2023/07/27 10:30:12;;;;;;;4.10;2.57;;;22.90;57.80;;;;;;5146814;28;20504;-45
2023/07/27 10:33:07;;;;;;;8.67;2.07;;;23.10;58.60;;;;;;5145065;28;20503;-44
2023/07/27 10:36:06;;;;;;;3.17;2.87;;;23.30;57.60;;;;;;5135365;28;20422;-47
2023/07/27 10:38:37;;;;;;;5.07;3.47;;;23.70;57.30;;;;;;5139115;28;20464;-46
2023/07/27 10:41:15;;;;;;;3.93;3.33;;;23.80;57.10;;;;;;5146705;28;20425;-44
2023/07/27 10:44:07;;;;;;;2.90;2.80;;;24.10;56.90;;;;;;5134137;28;20224;-46
2023/07/27 10:46:38;;;;;;;2.60;2.40;;;24.00;56.90;;;;;;5146625;28;20447;-44
2023/07/27 10:49:10;;;;;;;5.00;3.47;;;24.20;57.40;;;;;;5134706;28;20441;-45
2023/07/27 10:51:46;;;;;;;4.57;3.20;;;24.00;57.10;;;;;;5131544;28;20957;-45
2023/07/27 10:54:16;;;;;;;2.90;2.70;;;24.00;56.80;;;;;;5141092;28;20449;-45
2023/07/27 10:56:48;;;;;;;2.70;2.40;;;23.60;57.40;;;;;;5146910;28;20468;-44
2023/07/27 10:59:20;;;;;;;3.07;2.87;;;23.30;58.50;;;;;;5141043;28;20179;-44
2023/07/27 11:01:51;;;;;;;2.70;2.50;;;23.00;58.70;;;;;;5140010;28;20440;-45
2023/07/27 11:04:22;;;;;;;6.40;3.67;;;22.90;59.50;;;;;;5153275;28;20460;-44
2023/07/27 11:06:53;;;;;;;3.13;2.93;;;22.80;59.60;;;;;;5142513;28;20438;-44
2023/07/27 11:09:24;;;;;;;2.90;2.80;;;22.80;59.90;;;;;;5142039;28;20241;-44
2023/07/27 11:12:02;;;;;;;3.17;2.90;;;22.90;59.10;;;;;;5142162;28;20193;-44
2023/07/27 11:14:32;;;;;;;18.10;7.33;;;22.80;59.10;;;;;;5146745;28;20471;-44
2023/07/27 11:17:03;;;;;;;3.10;2.80;;;22.40;60.20;;;;;;5131164;28;20866;-45
2023/07/27 11:19:35;;;;;;;3.03;2.57;;;22.20;60.50;;;;;;5137487;28;20182;-44
2023/07/27 11:22:06;;;;;;;3.70;3.37;;;22.00;61.10;;;;;;5144344;28;21013;-44
2023/07/27 11:24:39;;;;;;;7.87;3.07;;;21.80;62.20;;;;;;5142274;28;20198;-44
2023/07/27 11:27:11;;;;;;;2.60;2.40;;;21.50;64.00;;;;;;5139778;28;20742;-45
2023/07/27 11:29:45;;;;;;;3.37;2.73;;;21.50;66.80;;;;;;5130763;28;20475;-45
2023/07/27 11:32:16;;;;;;;3.90;3.50;;;21.60;67.00;;;;;;5135498;28;20972;-43
2023/07/27 11:34:46;;;;;;;3.27;3.03;;;21.70;66.00;;;;;;5135521;28;20450;-44
2023/07/27 11:37:17;;;;;;;3.30;3.03;;;21.70;68.60;;;;;;5145315;28;20205;-44
2023/07/27 11:39:48;;;;;;;4.03;3.63;;;21.60;69.50;;;;;;5137750;28;20184;-44
2023/07/27 11:42:36;;;;;;;3.40;3.20;;;21.80;71.70;;;;;;5144460;28;20186;-44
2023/07/27 11:45:09;;;;;;;4.57;2.77;;;21.90;71.30;;;;;;5136592;28;20182;-46
2023/07/27 11:47:39;;;;;;;4.33;2.70;;;22.00;71.10;;;;;;5127931;28;20410;-45
2023/07/27 11:50:14;;;;;;;5.23;3.20;;;22.00;71.30;;;;;;5141532;28;20432;-44
2023/07/27 11:52:45;;;;;;;4.63;3.03;;;22.00;72.10;;;;;;5146346;28;20547;-44
2023/07/27 11:55:16;;;;;;;4.63;4.20;;;22.00;74.20;;;;;;5142256;28;20465;-45
2023/07/27 11:57:50;;;;;;;3.10;2.87;;;21.90;73.40;;;;;;5142339;28;20198;-44
2023/07/27 12:00:22;;;;;;;2.53;2.33;;;21.80;74.70;;;;;;5137567;28;20495;-45
2023/07/27 12:02:53;;;;;;;3.13;2.90;;;22.00;75.60;;;;;;5139057;28;20460;-45
2023/07/27 12:05:24;;;;;;;3.77;2.70;;;21.90;76.20;;;;;;5137415;28;20776;-45
2023/07/27 12:07:56;;;;;;;5.43;2.73;;;21.90;77.00;;;;;;5136244;28;20576;-44
2023/07/27 12:10:27;;;;;;;3.07;2.87;;;21.90;78.60;;;;;;5140987;28;20193;-44
2023/07/27 12:13:05;;;;;;;3.57;3.03;;;21.80;78.70;;;;;;5139340;28;20467;-44
2023/07/27 12:15:37;;;;;;;5.07;3.57;;;21.70;80.80;;;;;;5134215;28;20204;-44
2023/07/27 12:18:10;;;;;;;9.63;4.37;;;21.50;83.00;;;;;;5141455;28;20467;-45
2023/07/27 12:20:41;;;;;;;3.20;2.90;;;21.50;84.60;;;;;;5140860;28;20433;-45
2023/07/27 12:23:12;;;;;;;3.43;3.23;;;21.60;86.00;;;;;;5137938;28;20467;-45
2023/07/27 12:25:43;;;;;;;10.50;4.60;;;21.70;86.60;;;;;;5137785;28;20241;-44
2023/07/27 12:28:14;;;;;;;3.63;3.03;;;21.80;87.90;;;;;;5140860;28;20245;-44
2023/07/27 12:30:45;;;;;;;14.47;6.07;;;21.90;88.30;;;;;;5137616;28;20526;-44
2023/07/27 12:33:16;;;;;;;3.90;3.57;;;22.00;89.10;;;;;;5149451;28;20867;-44
2023/07/27 12:35:47;;;;;;;3.33;3.10;;;21.90;90.00;;;;;;5148217;28;20331;-45
2023/07/27 12:38:19;;;;;;;4.27;3.90;;;21.90;90.90;;;;;;5143635;28;20209;-44
2023/07/27 12:40:50;;;;;;;3.80;3.50;;;22.00;91.30;;;;;;5135699;28;20448;-45
2023/07/27 12:43:22;;;;;;;3.43;2.90;;;22.20;91.00;;;;;;5147925;28;20460;-44
2023/07/27 12:45:53;;;;;;;2.80;2.57;;;22.30;89.40;;;;;;5159957;28;20520;-44
2023/07/27 12:48:23;;;;;;;5.93;3.33;;;22.40;87.10;;;;;;5145787;28;20456;-50
2023/07/27 12:50:54;;;;;;;2.57;2.50;;;22.50;87.10;;;;;;5147001;28;20178;-44
2023/07/27 12:53:25;;;;;;;3.50;3.20;;;22.50;87.80;;;;;;5144759;28;20205;-44
2023/07/27 12:55:55;;;;;;;3.27;2.83;;;22.50;88.00;;;;;;5136751;28;20572;-43
2023/07/27 12:58:26;;;;;;;5.67;3.33;;;22.50;88.10;;;;;;5141733;28;20268;-45
2023/07/27 13:00:57;;;;;;;4.07;3.77;;;22.70;86.70;;;;;;5148049;28;20606;-44
2023/07/27 13:03:28;;;;;;;3.60;3.30;;;22.70;85.40;;;;;;5146031;28;20198;-46
2023/07/27 13:06:00;;;;;;;6.77;3.30;;;22.70;85.90;;;;;;5150258;28;20228;-45
2023/07/27 13:08:31;;;;;;;3.07;2.87;;;22.70;85.60;;;;;;5148606;28;20213;-44
2023/07/27 13:11:02;;;;;;;3.90;3.13;;;22.90;85.90;;;;;;5147625;28;20847;-45